createdAt,value
2022-11-18T00:01:45.453Z,0.40
2022-11-18T00:06:37.150Z,0.37
2022-11-18T00:11:48.262Z,0.30
2022-11-18T00:16:39.937Z,0.20
2022-11-18T00:21:31.675Z,0.50
2022-11-18T00:26:23.489Z,0.30
2022-11-18T00:31:15.320Z,0.43
2022-11-18T00:36:11.210Z,0.23
2022-11-18T00:41:09.299Z,0.50
2022-11-18T00:46:01.734Z,0.30
2022-11-18T00:50:57.996Z,0.17
2022-11-18T00:55:50.605Z,0.30
2022-11-18T01:00:45.018Z,0.40
2022-11-18T01:05:38.002Z,0.50
2022-11-18T01:10:30.153Z,0.60
2022-11-18T01:15:21.862Z,0.43
2022-11-18T01:20:15.226Z,0.60
2022-11-18T01:25:07.580Z,0.50
2022-11-18T01:29:59.251Z,0.50
2022-11-18T01:34:50.921Z,0.50
2022-11-18T01:45:32.194Z,0.30
2022-11-18T01:50:24.548Z,0.53
2022-11-18T01:55:26.687Z,0.40
2022-11-18T02:00:18.612Z,0.30
2022-11-18T02:05:11.706Z,0.50
2022-11-18T02:10:07.173Z,0.60
2022-11-18T02:15:00.546Z,0.50
2022-11-18T02:20:12.129Z,0.47
2022-11-18T02:25:46.937Z,0.20
2022-11-18T02:31:06.421Z,0.17
2022-11-18T02:36:13.055Z,0.20
2022-11-18T02:41:09.197Z,0.10
2022-11-18T02:46:08.998Z,0.13
2022-11-18T02:51:05.725Z,0.20
2022-11-18T02:56:00.106Z,0.30
2022-11-18T03:00:57.982Z,0.20
2022-11-18T03:06:23.606Z,0.10
2022-11-18T03:11:29.410Z,0.10
2022-11-18T03:16:34.938Z,0.10
2022-11-18T03:21:37.309Z,0.20
2022-11-18T03:26:38.817Z,0.20
2022-11-18T03:32:03.697Z,0.10
2022-11-18T03:37:05.245Z,0.20
2022-11-18T03:42:41.423Z,0.00
2022-11-18T03:47:40.781Z,0.17
2022-11-18T03:52:37.535Z,0.10
2022-11-18T03:58:04.066Z,0.20
2022-11-18T04:02:55.986Z,0.20
2022-11-18T04:08:02.603Z,0.10
2022-11-18T04:13:06.883Z,0.00
2022-11-18T04:17:59.606Z,0.10
2022-11-18T04:22:51.363Z,0.00
2022-11-18T04:27:43.145Z,0.00
2022-11-18T04:32:34.929Z,0.00
2022-11-18T04:37:26.780Z,0.10
2022-11-18T04:42:18.630Z,0.00
2022-11-18T04:47:10.683Z,0.10
2022-11-18T04:52:03.098Z,0.10
2022-11-18T04:56:56.070Z,0.10
2022-11-18T05:22:52.404Z,0.00
2022-11-18T15:07:00.204Z,0.43
